Rubikon9+ttc14001 — OMFJ — position and weather

sailwx.info

Track history (hours):
 
Tides and Currents Weather Stations Pressure Air Temp Water Temp Dewpoint Dewpoint Depression Visibility Wind Speed Wind Dir Waves Ship Positions

Rubikon9+ttc14001

Last reported at 2018-Jan-21 04:17 UTC. Time now 2018-Jan-21 05:03 UTC.
Position N 47°17' E 018°55'.

Length 185 m; draft 0.2 m.

Type: Tanker. MMSI: 267210081.

Date/timePositionNaut miles runAvg speedWind from/ knotsBaromVisibWave heightAir tempDewpointWater temp
2018-Jan-21 04:17N 47°17' E 018°55'0 0.0
2018-Jan-21 03:59N 47°17' E 018°55'0 0.0
2018-Jan-21 03:26N 47°17' E 018°55'0 0.0
2018-Jan-21 02:59N 47°17' E 018°55'0 0.0
2018-Jan-21 02:29N 47°17' E 018°55'0 0.0
2018-Jan-21 01:53N 47°17' E 018°55'0 0.0
2018-Jan-21 01:14N 47°17' E 018°55'0 0.0
2018-Jan-20 23:11N 47°17' E 018°55'18415.2
2018-Jan-20 11:04N 44°47' E 021°27'0 7.8
2018-Jan-20 11:00N 44°47' E 021°27'20 6.4
2018-Jan-20 07:56N 44°43' E 020°60'5 7.5
2018-Jan-20 07:17N 44°40' E 020°54'8 7.2
2018-Jan-20 06:07N 44°42' E 020°43'3 7.4
2018-Jan-20 05:40N 44°44' E 020°40'1 7.8
2018-Jan-20 05:30N 44°45' E 020°38'3 7.0
2018-Jan-20 05:00N 44°48' E 020°38'2 4.6
2018-Jan-20 04:30N 44°51' E 020°38'0 0.0
2018-Jan-20 04:00N 44°51' E 020°38'0 0.0
2018-Jan-20 03:30N 44°51' E 020°38'0 0.0
2018-Jan-20 03:00N 44°51' E 020°38'0 0.0
2018-Jan-20 02:30N 44°51' E 020°38'0 0.0
2018-Jan-20 01:59N 44°51' E 020°38'0 0.0
2018-Jan-20 01:30N 44°51' E 020°38'163816.7
2018-Jan-20 01:18N 47°17' E 018°55'163528.1
2018-Jan-20 01:00N 44°51' E 020°38'1632467.0
2018-Jan-20 00:56N 47°17' E 018°55'163383.5
2018-Jan-20 00:30N 44°51' E 020°38'1621453.8
2018-Jan-20 00:24N 47°16' E 018°55'162401.1
2018-Jan-20 00:00N 44°51' E 020°38'0 0.0
2018-Jan-19 23:30N 44°51' E 020°38'0 0.0
2018-Jan-19 23:00N 44°51' E 020°38'0 0.0
2018-Jan-19 22:30N 44°51' E 020°38'0 0.0
2018-Jan-19 22:00N 44°51' E 020°38'0 0.0
2018-Jan-19 21:30N 44°51' E 020°38'0 0.0
2018-Jan-19 21:00N 44°51' E 020°38'0 0.0
2018-Jan-19 20:28N 44°51' E 020°38'0 0.0
2018-Jan-19 20:00N 44°51' E 020°38'0 0.0
2018-Jan-19 19:30N 44°51' E 020°38'0 0.0
2018-Jan-19 19:00N 44°51' E 020°38'0 0.0
2018-Jan-19 18:30N 44°51' E 020°38'0 0.0
2018-Jan-19 18:00N 44°51' E 020°38'0 0.0
2018-Jan-19 17:30N 44°51' E 020°38'0 0.0
2018-Jan-19 17:00N 44°51' E 020°38'0 0.0
2018-Jan-19 16:30N 44°51' E 020°38'0 0.0
2018-Jan-19 16:00N 44°51' E 020°38'0 0.0
2018-Jan-19 15:30N 44°51' E 020°38'0 0.0
2018-Jan-19 15:01N 44°51' E 020°38'0 0.0
2018-Jan-19 14:30N 44°51' E 020°38'0 0.0
2018-Jan-19 14:00N 44°51' E 020°38'0 0.0
2018-Jan-19 13:31N 44°51' E 020°38'0 0.0
2018-Jan-19 13:00N 44°51' E 020°38'0 0.0
2018-Jan-19 12:30N 44°51' E 020°38'2 3.9
2018-Jan-19 12:00N 44°51' E 020°35'3 6.6
2018-Jan-19 11:30N 44°50' E 020°31'1 1.1
2018-Jan-19 11:00N 44°50' E 020°30'2 3.0
2018-Jan-19 10:30N 44°50' E 020°28'0 0.1
2018-Jan-19 10:00N 44°50' E 020°28'0 0.4
2018-Jan-19 09:30N 44°50' E 020°29'2 3.2
2018-Jan-19 09:00N 44°50' E 020°31'3 5.4
2018-Jan-19 08:30N 44°50' E 020°27'3 6.8
2018-Jan-19 08:00N 44°52' E 020°23'3 6.9
2018-Jan-19 07:30N 44°55' E 020°20'4 7.2
2018-Jan-19 07:00N 44°58' E 020°17'3 6.0
2018-Jan-19 06:30N 44°60' E 020°20'3 5.7
2018-Jan-19 06:00N 45°03' E 020°21'4 7.0
2018-Jan-19 05:29N 45°06' E 020°18'2 4.6
2018-Jan-19 05:00N 45°07' E 020°17'0 0.0
2018-Jan-19 04:30N 45°07' E 020°17'0 0.0
2018-Jan-19 04:00N 45°07' E 020°17'0 0.0
2018-Jan-19 03:30N 45°07' E 020°17'0 0.0
2018-Jan-19 03:00N 45°07' E 020°17'0 0.0
2018-Jan-19 02:30N 45°07' E 020°17'0 0.0
2018-Jan-19 02:00N 45°07' E 020°17'0 0.0
2018-Jan-19 01:30N 45°07' E 020°17'0 0.0
2018-Jan-19 01:00N 45°07' E 020°17'0 0.0
2018-Jan-19 00:30N 45°07' E 020°17'0 0.0
2018-Jan-19 00:00N 45°07' E 020°17'0 0.0
2018-Jan-18 23:30N 45°07' E 020°17'0 0.0
2018-Jan-18 23:00N 45°07' E 020°17'0 0.0
2018-Jan-18 22:30N 45°07' E 020°17'0 0.0
2018-Jan-18 22:00N 45°07' E 020°17'0 0.0
2018-Jan-18 21:29N 45°07' E 020°17'0 0.0
2018-Jan-18 20:58N 45°07' E 020°17'0 0.0
2018-Jan-18 20:29N 45°07' E 020°17'1 1.5
2018-Jan-18 19:58N 45°08' E 020°16'2 4.7
2018-Jan-18 19:30N 45°10' E 020°14'3 5.9
2018-Jan-18 19:00N 45°11' E 020°10'3 5.6
2018-Jan-18 18:30N 45°10' E 020°07'3 6.7
2018-Jan-18 18:00N 45°10' E 020°02'3 6.5
2018-Jan-18 17:30N 45°12' E 019°57'5 6.8
2018-Jan-18 16:44N 45°16' E 019°53'1 5.3
2018-Jan-18 16:30N 45°15' E 019°51'5 8.3
2018-Jan-18 15:55N 45°14' E 019°45'10 5.7
2018-Jan-18 14:05N 45°15' E 019°30'2 7.5
2018-Jan-18 13:50N 45°14' E 019°27'481227.8
2018-Jan-18 13:47N 45°55' E 018°49'47167.4
2018-Jan-18 13:30N 45°14' E 019°24'45318.3
2018-Jan-18 13:22N 45°52' E 018°50'43119.1
2018-Jan-18 13:00N 45°14' E 019°18'41281.7
2018-Jan-18 12:52N 45°50' E 018°52'0 0.0
2018-Jan-18 12:30N 45°50' E 018°52'38636.2
2018-Jan-18 12:27N 45°16' E 019°12'3 7.7
2018-Jan-18 12:01N 45°17' E 019°08'352053.5
2018-Jan-18 11:59N 45°50' E 018°52'3266.2
2018-Jan-18 11:31N 45°20' E 019°06'321120.6
2018-Jan-18 11:29N 45°50' E 018°51'3063.2
2018-Jan-18 11:00N 45°21' E 019°01'271097.7
2018-Jan-18 10:59N 45°47' E 018°51'2 4.8
2018-Jan-18 10:30N 45°46' E 018°53'2041.0
2018-Jan-18 10:00N 45°26' E 019°01'3 6.8
2018-Jan-18 09:31N 45°29' E 018°60'1221285.2
2018-Jan-18 09:30N 45°41' E 018°57'1325.7
2018-Jan-18 09:01N 45°29' E 019°04'1113267.9
2018-Jan-18 09:00N 45°39' E 018°57'917.9
2018-Jan-18 08:31N 45°32' E 019°04'931355.4
2018-Jan-18 08:30N 45°37' E 018°54'611.3
2018-Jan-18 08:01N 45°33' E 019°01'59420.1
2018-Jan-18 08:00N 45°34' E 018°53'3 5.4
2018-Jan-18 07:31N 45°33' E 018°56'027.2
2018-Jan-18 07:30N 45°33' E 018°56'3 5.7
2018-Jan-18 07:00N 45°35' E 018°54'41650.4
2018-Jan-18 07:00N 45°32' E 018°58'2 4.9
2018-Jan-18 06:31N 45°33' E 019°01'620097.3
2018-Jan-18 06:30N 45°38' E 018°56'3 6.0
2018-Jan-18 06:01N 45°41' E 018°57'933733.8
2018-Jan-18 06:01N 45°32' E 019°03'1325.5
2018-Jan-18 05:31N 45°43' E 018°54'1553554.0
2018-Jan-18 05:31N 45°31' E 019°06'1836.7
2018-Jan-18 05:01N 45°47' E 018°53'1934510.7
2018-Jan-18 05:01N 45°29' E 019°04'2244.5
2018-Jan-18 04:31N 45°50' E 018°51'21593.9
2018-Jan-18 04:28N 45°30' E 019°00'2247.0
2018-Jan-18 04:00N 45°51' E 018°52'242423.9
2018-Jan-18 04:00N 45°27' E 018°59'2 5.0
2018-Jan-18 03:30N 45°25' E 019°02'26536.5
2018-Jan-18 03:27N 45°51' E 018°52'2761.6
2018-Jan-18 03:01N 45°24' E 018°60'277598.6
2018-Jan-18 03:00N 45°51' E 018°52'0 0.0
2018-Jan-18 02:30N 45°51' E 018°52'0 0.0
2018-Jan-18 01:56N 45°51' E 018°52'0 0.0
2018-Jan-18 01:28N 45°51' E 018°52'0 0.0
2018-Jan-18 00:59N 45°51' E 018°52'0 0.0
2018-Jan-18 00:00N 45°51' E 018°52'0 0.0
2018-Jan-17 23:57N 45°51' E 018°52'  
Track history (hours):
 
Tides and Currents Weather Stations Pressure Air Temp Water Temp Dewpoint Dewpoint Depression Visibility Wind Speed Wind Dir Waves Ship Positions

Rubikon9+ttc14001

Last reported at 2018-Jan-21 04:17 UTC. Time now 2018-Jan-21 05:03 UTC.
Position N 47°17' E 018°55'.

Length 185 m; draft 0.2 m.

Type: Tanker. MMSI: 267210081.

Date/timePositionNaut miles runAvg speedWind from/ knotsBaromVisibWave heightAir tempDewpointWater temp
2018-Jan-21 04:17N 47°17' E 018°55'0 0.0
2018-Jan-21 03:59N 47°17' E 018°55'0 0.0
2018-Jan-21 03:26N 47°17' E 018°55'0 0.0
2018-Jan-21 02:59N 47°17' E 018°55'0 0.0
2018-Jan-21 02:29N 47°17' E 018°55'0 0.0
2018-Jan-21 01:53N 47°17' E 018°55'0 0.0
2018-Jan-21 01:14N 47°17' E 018°55'0 0.0
2018-Jan-20 23:11N 47°17' E 018°55'18415.2
2018-Jan-20 11:04N 44°47' E 021°27'0 7.8
2018-Jan-20 11:00N 44°47' E 021°27'20 6.4
2018-Jan-20 07:56N 44°43' E 020°60'5 7.5
2018-Jan-20 07:17N 44°40' E 020°54'8 7.2
2018-Jan-20 06:07N 44°42' E 020°43'3 7.4
2018-Jan-20 05:40N 44°44' E 020°40'1 7.8
2018-Jan-20 05:30N 44°45' E 020°38'3 7.0
2018-Jan-20 05:00N 44°48' E 020°38'2 4.6
2018-Jan-20 04:30N 44°51' E 020°38'0 0.0
2018-Jan-20 04:00N 44°51' E 020°38'0 0.0
2018-Jan-20 03:30N 44°51' E 020°38'0 0.0
2018-Jan-20 03:00N 44°51' E 020°38'0 0.0
2018-Jan-20 02:30N 44°51' E 020°38'0 0.0
2018-Jan-20 01:59N 44°51' E 020°38'0 0.0
2018-Jan-20 01:30N 44°51' E 020°38'163816.7
2018-Jan-20 01:18N 47°17' E 018°55'163528.1
2018-Jan-20 01:00N 44°51' E 020°38'1632467.0
2018-Jan-20 00:56N 47°17' E 018°55'163383.5
2018-Jan-20 00:30N 44°51' E 020°38'1621453.8
2018-Jan-20 00:24N 47°16' E 018°55'162401.1
2018-Jan-20 00:00N 44°51' E 020°38'0 0.0
2018-Jan-19 23:30N 44°51' E 020°38'0 0.0
2018-Jan-19 23:00N 44°51' E 020°38'0 0.0
2018-Jan-19 22:30N 44°51' E 020°38'0 0.0
2018-Jan-19 22:00N 44°51' E 020°38'0 0.0
2018-Jan-19 21:30N 44°51' E 020°38'0 0.0
2018-Jan-19 21:00N 44°51' E 020°38'0 0.0
2018-Jan-19 20:28N 44°51' E 020°38'0 0.0
2018-Jan-19 20:00N 44°51' E 020°38'0 0.0
2018-Jan-19 19:30N 44°51' E 020°38'0 0.0
2018-Jan-19 19:00N 44°51' E 020°38'0 0.0
2018-Jan-19 18:30N 44°51' E 020°38'0 0.0
2018-Jan-19 18:00N 44°51' E 020°38'0 0.0
2018-Jan-19 17:30N 44°51' E 020°38'0 0.0
2018-Jan-19 17:00N 44°51' E 020°38'0 0.0
2018-Jan-19 16:30N 44°51' E 020°38'0 0.0
2018-Jan-19 16:00N 44°51' E 020°38'0 0.0
2018-Jan-19 15:30N 44°51' E 020°38'0 0.0
2018-Jan-19 15:01N 44°51' E 020°38'0 0.0
2018-Jan-19 14:30N 44°51' E 020°38'0 0.0
2018-Jan-19 14:00N 44°51' E 020°38'0 0.0
2018-Jan-19 13:31N 44°51' E 020°38'0 0.0
2018-Jan-19 13:00N 44°51' E 020°38'0 0.0
2018-Jan-19 12:30N 44°51' E 020°38'2 3.9
2018-Jan-19 12:00N 44°51' E 020°35'3 6.6
2018-Jan-19 11:30N 44°50' E 020°31'1 1.1
2018-Jan-19 11:00N 44°50' E 020°30'2 3.0
2018-Jan-19 10:30N 44°50' E 020°28'0 0.1
2018-Jan-19 10:00N 44°50' E 020°28'0 0.4
2018-Jan-19 09:30N 44°50' E 020°29'2 3.2
2018-Jan-19 09:00N 44°50' E 020°31'3 5.4
2018-Jan-19 08:30N 44°50' E 020°27'3 6.8
2018-Jan-19 08:00N 44°52' E 020°23'3 6.9
2018-Jan-19 07:30N 44°55' E 020°20'4 7.2
2018-Jan-19 07:00N 44°58' E 020°17'3 6.0
2018-Jan-19 06:30N 44°60' E 020°20'3 5.7
2018-Jan-19 06:00N 45°03' E 020°21'4 7.0
2018-Jan-19 05:29N 45°06' E 020°18'2 4.6
2018-Jan-19 05:00N 45°07' E 020°17'0 0.0
2018-Jan-19 04:30N 45°07' E 020°17'0 0.0
2018-Jan-19 04:00N 45°07' E 020°17'0 0.0
2018-Jan-19 03:30N 45°07' E 020°17'0 0.0
2018-Jan-19 03:00N 45°07' E 020°17'0 0.0
2018-Jan-19 02:30N 45°07' E 020°17'0 0.0
2018-Jan-19 02:00N 45°07' E 020°17'0 0.0
2018-Jan-19 01:30N 45°07' E 020°17'0 0.0
2018-Jan-19 01:00N 45°07' E 020°17'0 0.0
2018-Jan-19 00:30N 45°07' E 020°17'0 0.0
2018-Jan-19 00:00N 45°07' E 020°17'0 0.0
2018-Jan-18 23:30N 45°07' E 020°17'0 0.0
2018-Jan-18 23:00N 45°07' E 020°17'0 0.0
2018-Jan-18 22:30N 45°07' E 020°17'0 0.0
2018-Jan-18 22:00N 45°07' E 020°17'0 0.0
2018-Jan-18 21:29N 45°07' E 020°17'0 0.0
2018-Jan-18 20:58N 45°07' E 020°17'0 0.0
2018-Jan-18 20:29N 45°07' E 020°17'1 1.5
2018-Jan-18 19:58N 45°08' E 020°16'2 4.7
2018-Jan-18 19:30N 45°10' E 020°14'3 5.9
2018-Jan-18 19:00N 45°11' E 020°10'3 5.6
2018-Jan-18 18:30N 45°10' E 020°07'3 6.7
2018-Jan-18 18:00N 45°10' E 020°02'3 6.5
2018-Jan-18 17:30N 45°12' E 019°57'5 6.8
2018-Jan-18 16:44N 45°16' E 019°53'1 5.3
2018-Jan-18 16:30N 45°15' E 019°51'5 8.3
2018-Jan-18 15:55N 45°14' E 019°45'10 5.7
2018-Jan-18 14:05N 45°15' E 019°30'2 7.5
2018-Jan-18 13:50N 45°14' E 019°27'481227.8
2018-Jan-18 13:47N 45°55' E 018°49'47167.4
2018-Jan-18 13:30N 45°14' E 019°24'45318.3
2018-Jan-18 13:22N 45°52' E 018°50'43119.1
2018-Jan-18 13:00N 45°14' E 019°18'41281.7
2018-Jan-18 12:52N 45°50' E 018°52'0 0.0
2018-Jan-18 12:30N 45°50' E 018°52'38636.2
2018-Jan-18 12:27N 45°16' E 019°12'3 7.7
2018-Jan-18 12:01N 45°17' E 019°08'352053.5
2018-Jan-18 11:59N 45°50' E 018°52'3266.2
2018-Jan-18 11:31N 45°20' E 019°06'321120.6
2018-Jan-18 11:29N 45°50' E 018°51'3063.2
2018-Jan-18 11:00N 45°21' E 019°01'271097.7
2018-Jan-18 10:59N 45°47' E 018°51'2 4.8
2018-Jan-18 10:30N 45°46' E 018°53'2041.0
2018-Jan-18 10:00N 45°26' E 019°01'3 6.8
2018-Jan-18 09:31N 45°29' E 018°60'1221285.2
2018-Jan-18 09:30N 45°41' E 018°57'1325.7
2018-Jan-18 09:01N 45°29' E 019°04'1113267.9
2018-Jan-18 09:00N 45°39' E 018°57'917.9
2018-Jan-18 08:31N 45°32' E 019°04'931355.4
2018-Jan-18 08:30N 45°37' E 018°54'611.3
2018-Jan-18 08:01N 45°33' E 019°01'59420.1
2018-Jan-18 08:00N 45°34' E 018°53'3 5.4
2018-Jan-18 07:31N 45°33' E 018°56'027.2
2018-Jan-18 07:30N 45°33' E 018°56'3 5.7
2018-Jan-18 07:00N 45°35' E 018°54'41650.4
2018-Jan-18 07:00N 45°32' E 018°58'2 4.9
2018-Jan-18 06:31N 45°33' E 019°01'620097.3
2018-Jan-18 06:30N 45°38' E 018°56'3 6.0
2018-Jan-18 06:01N 45°41' E 018°57'933733.8
2018-Jan-18 06:01N 45°32' E 019°03'1325.5
2018-Jan-18 05:31N 45°43' E 018°54'1553554.0
2018-Jan-18 05:31N 45°31' E 019°06'1836.7
2018-Jan-18 05:01N 45°47' E 018°53'1934510.7
2018-Jan-18 05:01N 45°29' E 019°04'2244.5
2018-Jan-18 04:31N 45°50' E 018°51'21593.9
2018-Jan-18 04:28N 45°30' E 019°00'2247.0
2018-Jan-18 04:00N 45°51' E 018°52'242423.9
2018-Jan-18 04:00N 45°27' E 018°59'2 5.0
2018-Jan-18 03:30N 45°25' E 019°02'26536.5
2018-Jan-18 03:27N 45°51' E 018°52'2761.6
2018-Jan-18 03:01N 45°24' E 018°60'277598.6
2018-Jan-18 03:00N 45°51' E 018°52'0 0.0
2018-Jan-18 02:30N 45°51' E 018°52'0 0.0
2018-Jan-18 01:56N 45°51' E 018°52'0 0.0
2018-Jan-18 01:28N 45°51' E 018°52'0 0.0
2018-Jan-18 00:59N 45°51' E 018°52'0 0.0
2018-Jan-18 00:00N 45°51' E 018°52'0 0.0
2018-Jan-17 23:57N 45°51' E 018°52'  

Dump ship's entire track history